Currently 86°F in Perris, California, USA
86°F
86°F / 59°F
7 mph SW
0.00"
Wednesday, June 20, 2018 11:56 AM PDT

Perris, California Weather Summary
Last 36 Hours

Temperature Winds Hourly Humidity Dewpoint
Time Report Norm Report Norm Max Gusts Precip. Rpt. Norm Rpt. Norm Pressure
1,2Wed 11:56 AM  85.9°F  85°F  7 mph SW  4 mph  11 mph  0.00"  39%  30%  57°F  49°F  N/A
Wed 11:00 AM  80.6°F  81°F  3 mph W  3 mph  11 mph  0.00"  51%  37%  60°F  51°F  N/A
Wed 10:00 AM  76.6°F  76°F  6 mph W  2 mph  10 mph  0.00"  59%  47%  61°F  54°F  N/A
Wed 09:00 AM  71.7°F  71°F  4 mph W  2 mph  8 mph  0.00"  70%  61%  61°F  56°F  N/A
Wed 08:00 AM  65.3°F  66°F  calm  1 mph  5 mph  0.00"  85%  73%  60°F  57°F  N/A
Wed 07:00 AM  59.0°F  60°F  calm  1 mph  none  0.00"  93%  82%  57°F  55°F  N/A
3Wed 06:30 AM  58.7°F  60°F  calm  1 mph  none  ----  92%  82%  56°F  54°F  N/A
Wed 06:00 AM  59.5°F  60°F  calm  1 mph  5 mph  0.00"  92%  82%  57°F  54°F  N/A
Wed 05:00 AM  59.2°F  61°F  3 mph SE  1 mph  5 mph  0.00"  92%  81%  57°F  55°F  N/A
Wed 04:00 AM  60.6°F  62°F  calm  1 mph  none  0.00"  90%  79%  57°F  55°F  N/A
Wed 03:00 AM  61.0°F  63°F  calm  1 mph  none  0.00"  88%  76%  57°F  55°F  N/A
Wed 02:00 AM  62.3°F  64°F  calm  1 mph  3 mph  0.00"  86%  74%  58°F  55°F  N/A
Wed 01:00 AM  61.9°F  65°F  1 mph NE  2 mph  3 mph  0.00"  88%  71%  58°F  55°F  N/A
Wed 12:00 AM  61.7°F  66°F  2 mph SE  2 mph  5 mph  0.00"  89%  67%  58°F  55°F  N/A
Tue 11:00 PM  62.5°F  68°F  2 mph SE  2 mph  9 mph  0.00"  87%  62%  58°F  54°F  N/A
Tue 10:00 PM  64.0°F  71°F  4 mph S  3 mph  10 mph  0.00"  83%  56%  59°F  54°F  N/A
Tue 09:00 PM  68.0°F  74°F  4 mph S  3 mph  9 mph  0.00"  75%  50%  60°F  53°F  N/A
Tue 08:00 PM  76.4°F  77°F  5 mph W  5 mph  12 mph  0.00"  56%  42%  59°F  52°F  N/A
Tue 07:00 PM  81.4°F  82°F  4 mph W  6 mph  14 mph  0.00"  46%  34%  58°F  50°F  N/A
Tue 06:00 PM  85.1°F  85°F  6 mph SW  7 mph  14 mph  0.00"  40%  30%  57°F  50°F  N/A
Tue 05:00 PM  86.8°F  88°F  6 mph NW  8 mph  14 mph  0.00"  36%  28%  56°F  49°F  N/A
Tue 04:00 PM  86.2°F  89°F  6 mph NW  7 mph  15 mph  0.00"  37%  26%  56°F  49°F  N/A
Tue 03:00 PM  86.7°F  90°F  7 mph NW  6 mph  15 mph  0.00"  35%  26%  55°F  49°F  N/A
Tue 02:00 PM  84.0°F  89°F  5 mph W  6 mph  14 mph  0.00"  38%  26%  55°F  48°F  N/A
Tue 01:00 PM  82.1°F  87°F  5 mph W  5 mph  13 mph  0.00"  41%  27%  55°F  48°F  N/A
Tue 12:00 PM  80.4°F  85°F  3 mph W  4 mph  11 mph  0.00"  45%  31%  57°F  49°F  N/A
Tue 11:00 AM  75.8°F  81°F  4 mph NW  3 mph  10 mph  0.00"  54%  38%  57°F  52°F  N/A
Tue 10:00 AM  69.8°F  76°F  2 mph SW  3 mph  6 mph  0.00"  65%  48%  57°F  54°F  N/A
Tue 09:00 AM  65.0°F  71°F  3 mph W  2 mph  6 mph  0.00"  75%  61%  56°F  56°F  N/A
Tue 08:00 AM  60.6°F  65°F  2 mph SW  1 mph  5 mph  0.00"  85%  74%  56°F  57°F  N/A
Tue 07:00 AM  55.5°F  60°F  calm  1 mph  none  0.00"  93%  82%  53°F  55°F  N/A
Tue 06:00 AM  55.5°F  60°F  calm  1 mph  3 mph  0.00"  92%  82%  53°F  54°F  N/A
Tue 05:00 AM  56.1°F  61°F  calm  1 mph  none  0.00"  92%  81%  54°F  55°F  N/A
Tue 04:00 AM  56.1°F  62°F  calm  1 mph  none  0.00"  92%  79%  54°F  55°F  N/A
Tue 03:00 AM  57.2°F  63°F  calm  1 mph  none  0.00"  90%  77%  54°F  55°F  N/A
Tue 02:00 AM  58.5°F  64°F  calm  1 mph  4 mph  0.00"  88%  74%  55°F  55°F  N/A
Tue 01:00 AM  59.6°F  65°F  1 mph W  2 mph  5 mph  0.00"  85%  71%  55°F  55°F  N/A
Tue 12:00 AM  60.8°F  66°F  calm  2 mph  8 mph  0.00"  82%  67%  55°F  55°F  N/A

  1. Current weather data. No green row appears if the current weather data is also the high or low for the current day.
  2. High temperature for the current day.
  3. Low temperature for the current day.

The Perris, California weather pages are a service of WeatherCurrents. Perris is located in Southern California's Inland Empire, south of Riverside and north of Sun City, along the Interstate 215 freeway.
Copyright ©Wed Jun 20 11:56:38 PDT 2018  WeatherCurrents. All rights reserved. - Submit questions and comments - Privacy Policy

This page automatically refreshes every 10 minutes.